Time;durP1;ratioP1;P1;durP2;ratioP2;P2;SDS_P1;SDS_P2;PMS_P1;PMS_P2;Temp;Humidity;BMP_temperature;BMP_pressure;BME280_temperature;BME280_humidity;BME280_pressure;Samples;Min_cycle;Max_cycle;Signal;HPM_P1;HPM_P2
2022/02/20 00:02:00;;;;;;;13.25;4.15;;;;;;;7.27;74.99;98947.44;5088718;28;20400;-70
2022/02/20 00:04:25;;;;;;;14.40;4.13;;;;;;;7.27;74.44;98939.56;5088895;28;20062;-70
2022/02/20 00:06:51;;;;;;;30.02;5.05;;;;;;;7.32;74.63;98953.28;5087888;28;20051;-70
2022/02/20 00:09:16;;;;;;;24.50;5.00;;;;;;;7.32;74.38;98950.66;5086191;28;20032;-70
2022/02/20 00:11:41;;;;;;;18.35;5.07;;;;;;;7.33;74.43;98965.47;5088653;28;20039;-70
2022/02/20 00:14:07;;;;;;;27.67;5.72;;;;;;;7.35;74.01;98978.50;5089179;28;20039;-70
2022/02/20 00:16:32;;;;;;;16.80;4.20;;;;;;;7.37;73.79;98976.66;5087925;28;20024;-70
2022/02/20 00:18:57;;;;;;;25.60;4.68;;;;;;;7.40;73.74;98979.13;5087868;28;20067;-71
2022/02/20 00:21:23;;;;;;;17.08;4.53;;;;;;;7.42;74.08;98993.03;5088343;28;20036;-70
2022/02/20 00:23:48;;;;;;;15.73;5.70;;;;;;;7.42;73.44;99006.97;5087929;28;20031;-70
2022/02/20 00:26:13;;;;;;;19.35;6.18;;;;;;;7.44;73.46;99015.63;5088031;28;20040;-70
2022/02/20 00:28:39;;;;;;;15.85;3.95;;;;;;;7.45;73.91;99019.94;5087944;28;20700;-70
2022/02/20 00:31:05;;;;;;;15.77;4.28;;;;;;;7.48;73.37;99000.56;5088648;28;20043;-70
2022/02/20 00:33:31;;;;;;;25.00;5.38;;;;;;;7.47;74.05;99014.63;5088137;28;20533;-70
2022/02/20 00:35:57;;;;;;;17.67;5.03;;;;;;;7.47;73.32;99025.97;5087324;28;20042;-71
2022/02/20 00:38:22;;;;;;;18.33;5.15;;;;;;;7.44;73.78;99043.63;5088051;28;20111;-69
2022/02/20 00:40:47;;;;;;;18.50;4.72;;;;;;;7.49;73.67;99031.13;5087288;28;20042;-70
2022/02/20 00:43:14;;;;;;;11.82;6.32;;;;;;;7.49;73.26;99039.00;5087574;28;20032;-70
2022/02/20 00:45:40;;;;;;;20.35;5.40;;;;;;;7.50;73.47;99046.78;5088590;28;20503;-70
2022/02/20 00:48:05;;;;;;;17.65;5.40;;;;;;;7.52;73.40;99047.56;5089711;28;20115;-70
2022/02/20 00:50:31;;;;;;;20.00;4.88;;;;;;;7.53;73.56;99040.53;5088328;28;20102;-70
2022/02/20 00:52:56;;;;;;;19.13;4.88;;;;;;;7.51;73.37;99066.84;5087648;28;20047;-69
2022/02/20 00:55:22;;;;;;;20.75;4.78;;;;;;;7.52;73.98;99054.59;5087394;28;20593;-69
2022/02/20 00:57:48;;;;;;;13.13;4.03;;;;;;;7.52;74.28;99057.22;5080736;28;20595;-69
2022/02/20 01:00:14;;;;;;;16.88;5.28;;;;;;;7.51;74.59;99068.63;5085176;28;20366;-69
2022/02/20 01:02:40;;;;;;;19.75;5.85;;;;;;;7.51;74.38;99081.75;5075156;28;20041;-69
2022/02/20 01:05:06;;;;;;;19.73;5.45;;;;;;;7.52;74.36;99093.94;5071680;28;20451;-69
2022/02/20 01:07:32;;;;;;;15.52;4.32;;;;;;;7.52;74.23;99107.03;5087808;28;20032;-70
2022/02/20 01:09:57;;;;;;;14.98;4.38;;;;;;;7.54;74.33;99102.56;5085902;28;20028;-70
2022/02/20 01:12:23;;;;;;;20.50;4.90;;;;;;;7.55;74.33;99116.53;5087237;28;20494;-69
2022/02/20 01:14:50;;;;;;;15.65;5.93;;;;;;;7.55;74.57;99119.16;5086475;28;20054;-69
2022/02/20 01:17:15;;;;;;;15.40;5.35;;;;;;;7.40;73.34;99116.34;5087410;28;20702;-69
2022/02/20 01:19:41;;;;;;;11.07;3.65;;;;;;;7.35;72.49;99122.72;5087149;28;20111;-69
2022/02/20 01:22:07;;;;;;;14.10;3.83;;;;;;;7.26;72.18;99117.00;5078624;28;20028;-69
2022/02/20 01:24:33;;;;;;;11.40;3.67;;;;;;;7.22;71.63;99119.81;5067132;28;20397;-69
2022/02/20 01:26:59;;;;;;;16.38;4.25;;;;;;;7.18;71.05;99129.59;5066727;28;20036;-69
2022/02/20 01:29:25;;;;;;;9.80;2.78;;;;;;;7.12;71.02;99143.00;5066424;28;20032;-69
2022/02/20 01:31:52;;;;;;;17.45;3.90;;;;;;;7.06;70.31;99145.88;5048821;28;20042;-69
2022/02/20 01:34:17;;;;;;;8.80;3.20;;;;;;;7.02;70.24;99149.56;5067525;28;20036;-69
2022/02/20 01:36:43;;;;;;;10.20;2.97;;;;;;;6.97;70.67;99164.66;5066941;28;20028;-70
2022/02/20 01:39:08;;;;;;;15.30;3.28;;;;;;;6.93;70.32;99156.06;5067418;28;20035;-70
2022/02/20 01:41:33;;;;;;;9.32;3.17;;;;;;;6.85;70.39;99166.88;5067516;28;20036;-70
2022/02/20 01:43:59;;;;;;;8.90;3.80;;;;;;;6.79;70.70;99166.28;5066773;28;20170;-70
2022/02/20 01:46:24;;;;;;;13.02;4.43;;;;;;;6.73;70.74;99179.66;5065938;28;20032;-71
2022/02/20 01:48:50;;;;;;;12.25;3.95;;;;;;;6.68;70.63;99173.78;5067823;28;20060;-70
2022/02/20 01:51:16;;;;;;;10.18;3.33;;;;;;;6.59;71.05;99183.72;5066921;28;20036;-69
2022/02/20 01:53:41;;;;;;;11.52;3.97;;;;;;;6.58;71.02;99176.78;5066521;28;20048;-69
2022/02/20 01:56:09;;;;;;;9.27;3.65;;;;;;;6.54;71.49;99169.97;5070177;28;20038;-69
2022/02/20 01:58:34;;;;;;;9.02;2.78;;;;;;;6.52;70.95;99177.06;5071414;28;20052;-70
2022/02/20 02:01:00;;;;;;;9.20;3.13;;;;;;;6.45;71.63;99179.06;5041377;28;20603;-69
2022/02/20 02:03:25;;;;;;;8.02;3.10;;;;;;;6.41;71.17;99176.66;5065759;28;20373;-69
2022/02/20 02:05:51;;;;;;;11.77;3.13;;;;;;;6.35;71.65;99174.28;5070126;28;20460;-69
2022/02/20 02:08:18;;;;;;;13.93;3.53;;;;;;;6.30;71.59;99171.88;5071156;28;20035;-69
2022/02/20 02:10:45;;;;;;;12.00;3.38;;;;;;;6.23;72.22;99176.50;5070619;28;20048;-69
2022/02/20 02:13:10;;;;;;;10.13;3.30;;;;;;;6.21;72.07;99193.19;5070174;28;20119;-69
2022/02/20 02:15:47;;;;;;;10.57;2.88;;;;;;;6.19;72.23;99201.09;5069748;28;20541;-69
2022/02/20 02:18:13;;;;;;;11.48;3.08;;;;;;;6.17;72.18;99207.31;5070429;28;20091;-69
2022/02/20 02:20:38;;;;;;;11.13;3.47;;;;;;;6.16;72.86;99209.06;5069605;28;20040;-69
2022/02/20 02:23:03;;;;;;;8.85;3.10;;;;;;;6.16;73.03;99211.69;5069622;28;20044;-69
2022/02/20 02:25:32;;;;;;;9.60;3.50;;;;;;;6.16;72.54;99208.22;5069915;28;20653;-69
2022/02/20 02:27:57;;;;;;;13.93;4.53;;;;;;;6.14;73.35;99203.03;5076350;28;20035;-69
2022/02/20 02:30:23;;;;;;;10.10;3.58;;;;;;;6.15;73.04;99199.53;5072516;28;20024;-69
2022/02/20 02:32:48;;;;;;;7.45;2.92;;;;;;;6.12;73.32;99204.88;5072813;28;20096;-70
2022/02/20 02:35:13;;;;;;;11.45;3.22;;;;;;;6.11;72.95;99210.19;5090252;28;20040;-69
2022/02/20 02:37:39;;;;;;;14.32;3.10;;;;;;;6.11;73.84;99205.78;5090445;28;20039;-70
2022/02/20 02:40:05;;;;;;;7.93;3.00;;;;;;;6.10;73.49;99201.47;5090087;28;20032;-69
2022/02/20 02:42:30;;;;;;;5.65;3.13;;;;;;;6.09;73.30;99212.00;5089791;28;20448;-69
2022/02/20 02:44:55;;;;;;;11.27;3.35;;;;;;;6.09;73.29;99197.16;5090091;28;20752;-69
2022/02/20 02:47:20;;;;;;;11.07;2.72;;;;;;;6.09;73.56;99198.91;5090792;28;20489;-69
2022/02/20 02:49:46;;;;;;;19.38;3.28;;;;;;;6.05;73.65;99197.31;5090127;28;20036;-67
2022/02/20 02:52:11;;;;;;;17.25;3.28;;;;;;;6.01;73.97;99201.84;5090481;28;20141;-69
2022/02/20 02:54:36;;;;;;;13.75;3.05;;;;;;;6.00;73.66;99206.19;5090326;28;20126;-69
2022/02/20 02:57:04;;;;;;;10.90;4.32;;;;;;;5.96;74.85;99212.50;5089152;28;20120;-68
2022/02/20 02:59:29;;;;;;;15.40;3.63;;;;;;;5.96;74.59;99211.66;5089441;28;20032;-69
2022/02/20 03:01:58;;;;;;;10.45;3.78;;;;;;;5.98;74.81;99215.03;5090033;28;20039;-69
2022/02/20 03:04:24;;;;;;;13.70;3.38;;;;;;;6.00;74.61;99215.81;5073219;28;20036;-69
2022/02/20 03:06:49;;;;;;;19.73;5.18;;;;;;;5.98;74.83;99215.91;5089704;28;20038;-69
2022/02/20 03:09:15;;;;;;;14.68;4.22;;;;;;;6.01;74.62;99217.53;5085064;28;20097;-68
2022/02/20 03:11:40;;;;;;;14.13;3.45;;;;;;;6.00;75.13;99218.44;5089553;28;20085;-68
2022/02/20 03:14:05;;;;;;;16.08;3.83;;;;;;;6.00;75.52;99224.53;5089684;28;20111;-69
2022/02/20 03:16:31;;;;;;;19.27;5.50;;;;;;;6.02;75.42;99234.94;5089664;28;20036;-69
2022/02/20 03:18:57;;;;;;;14.95;4.82;;;;;;;6.06;75.56;99233.06;5089690;28;20516;-69
2022/02/20 03:21:22;;;;;;;14.63;4.63;;;;;;;6.06;75.39;99228.69;5089240;28;20039;-69
2022/02/20 03:23:48;;;;;;;17.05;4.13;;;;;;;6.07;75.53;99237.38;5089323;28;20028;-69
2022/02/20 03:26:13;;;;;;;13.63;4.07;;;;;;;6.05;75.74;99234.81;5088503;28;20115;-69
2022/02/20 03:28:38;;;;;;;22.75;6.05;;;;;;;6.05;75.71;99223.50;5086047;28;20515;-69
2022/02/20 03:31:04;;;;;;;30.40;5.55;;;;;;;6.07;75.66;99232.97;5088873;28;20111;-69
2022/02/20 03:33:30;;;;;;;14.95;4.35;;;;;;;6.05;75.76;99228.72;5087052;28;20040;-70
2022/02/20 03:35:55;;;;;;;20.80;5.80;;;;;;;6.06;75.52;99226.06;5089174;28;20514;-68
2022/02/20 03:38:21;;;;;;;21.67;4.47;;;;;;;6.08;75.57;99224.25;5089213;28;20228;-68
2022/02/20 03:40:46;;;;;;;19.45;5.03;;;;;;;6.07;75.22;99225.13;5088874;28;20036;-68
2022/02/20 03:43:11;;;;;;;20.83;6.07;;;;;;;6.10;75.17;99225.00;5089377;28;20076;-68
2022/02/20 03:45:37;;;;;;;14.82;4.28;;;;;;;6.13;75.09;99224.91;5089053;28;20096;-69
2022/02/20 03:48:03;;;;;;;18.33;5.15;;;;;;;6.16;75.04;99223.94;5089817;28;20032;-69
2022/02/20 03:50:28;;;;;;;17.70;4.78;;;;;;;6.17;74.90;99213.38;5089125;28;20043;-69
2022/02/20 03:52:54;;;;;;;13.63;4.57;;;;;;;6.17;74.50;99210.75;5089526;28;20416;-69
2022/02/20 03:55:20;;;;;;;21.60;4.68;;;;;;;6.21;74.40;99220.22;5088797;28;20456;-70
2022/02/20 03:57:46;;;;;;;14.27;5.57;;;;;;;6.24;74.40;99217.47;5090008;28;20036;-69
2022/02/20 04:00:14;;;;;;;21.48;4.70;;;;;;;6.27;74.61;99213.00;5088912;28;20027;-69
2022/02/20 04:02:40;;;;;;;19.73;5.95;;;;;;;6.31;74.17;99217.22;5089250;28;20032;-69
2022/02/20 04:05:08;;;;;;;10.55;3.78;;;;;;;6.34;74.01;99217.09;5088550;28;20042;-69
2022/02/20 04:07:34;;;;;;;20.27;5.55;;;;;;;6.37;74.36;99204.72;5088904;28;20047;-69
2022/02/20 04:10:00;;;;;;;13.23;5.50;;;;;;;6.41;74.12;99193.22;5088234;28;20111;-69
2022/02/20 04:12:25;;;;;;;15.20;4.65;;;;;;;6.45;73.89;99201.81;5088540;28;20123;-70
2022/02/20 04:14:51;;;;;;;11.25;4.28;;;;;;;6.51;73.85;99198.06;5089278;28;20028;-69
2022/02/20 04:17:17;;;;;;;19.40;5.32;;;;;;;6.52;73.97;99198.00;5087779;28;20036;-69
2022/02/20 04:19:43;;;;;;;21.63;5.25;;;;;;;6.53;73.78;99197.09;5088409;28;20044;-69
2022/02/20 04:22:08;;;;;;;21.73;4.88;;;;;;;6.56;73.93;99185.63;5069977;28;20047;-69
2022/02/20 04:24:35;;;;;;;20.88;5.90;;;;;;;6.57;73.67;99185.56;5088649;28;20040;-69
2022/02/20 04:27:00;;;;;;;21.20;4.88;;;;;;;6.57;73.86;99188.19;5087905;28;20028;-69
2022/02/20 04:29:26;;;;;;;20.75;5.75;;;;;;;6.57;74.31;99192.56;5088070;28;20105;-69
2022/02/20 04:31:51;;;;;;;17.70;5.57;;;;;;;6.59;74.24;99188.09;5087422;28;20493;-69
2022/02/20 04:34:16;;;;;;;13.43;5.05;;;;;;;6.58;74.61;99176.78;5087981;28;20047;-69
2022/02/20 04:36:41;;;;;;;10.45;5.57;;;;;;;6.62;74.68;99177.50;5069965;28;20046;-69
2022/02/20 04:39:09;;;;;;;24.35;5.82;;;;;;;6.61;75.11;99176.66;5087653;28;20020;-69
2022/02/20 04:41:35;;;;;;;20.50;6.75;;;;;;;6.59;75.33;99164.53;5088034;28;20088;-69
2022/02/20 04:44:00;;;;;;;18.58;5.82;;;;;;;6.58;75.46;99166.31;5087769;28;20032;-69
2022/02/20 04:46:25;;;;;;;11.30;3.75;;;;;;;6.60;75.79;99164.47;5087777;28;20036;-69
2022/02/20 04:48:51;;;;;;;20.20;6.53;;;;;;;6.59;75.83;99157.53;5069914;28;20115;-70
2022/02/20 04:51:17;;;;;;;19.33;5.40;;;;;;;6.62;76.20;99156.53;5069731;28;20052;-69
2022/02/20 04:53:42;;;;;;;20.55;4.38;;;;;;;6.65;76.13;99159.06;5087940;28;20047;-69
2022/02/20 04:56:07;;;;;;;14.60;4.55;;;;;;;6.60;76.60;99143.53;5087558;28;20032;-68
2022/02/20 04:58:33;;;;;;;21.20;5.25;;;;;;;6.59;77.15;99141.81;5070121;28;20036;-69
2022/02/20 05:00:58;;;;;;;17.70;4.30;;;;;;;6.61;77.11;99142.59;5087414;28;20031;-68
2022/02/20 05:03:23;;;;;;;20.08;5.47;;;;;;;6.60;77.66;99121.72;5088667;28;20120;-69
2022/02/20 05:05:49;;;;;;;14.77;4.80;;;;;;;6.60;77.45;99122.59;5087977;28;20485;-69
2022/02/20 05:08:14;;;;;;;20.63;4.82;;;;;;;6.62;77.55;99123.38;5070695;28;20512;-69
2022/02/20 05:10:40;;;;;;;25.98;4.20;;;;;;;6.63;77.55;99111.97;5067612;28;20036;-69
2022/02/20 05:13:05;;;;;;;12.77;4.60;;;;;;;6.67;78.01;99112.69;5068114;28;20371;-69
2022/02/20 05:15:30;;;;;;;18.65;5.07;;;;;;;6.70;77.62;99102.06;5067846;28;20109;-69
2022/02/20 05:17:56;;;;;;;22.98;7.40;;;;;;;6.72;77.93;99107.22;5069039;28;20171;-69
2022/02/20 05:20:21;;;;;;;17.35;4.60;;;;;;;6.75;77.70;99094.84;5067861;28;20032;-69
2022/02/20 05:22:47;;;;;;;27.30;5.57;;;;;;;6.76;78.36;99093.94;5067389;28;20032;-69
2022/02/20 05:25:13;;;;;;;16.52;5.10;;;;;;;6.77;78.39;99093.03;5066829;28;20406;-70
2022/02/20 05:27:42;;;;;;;14.52;5.25;;;;;;;6.78;78.19;99079.00;5067325;28;20047;-69
2022/02/20 05:30:09;;;;;;;22.77;5.55;;;;;;;6.82;78.40;99075.31;5068537;28;20059;-69
2022/02/20 05:32:34;;;;;;;15.63;4.50;;;;;;;6.86;78.24;99081.25;5067275;28;20114;-69
2022/02/20 05:34:59;;;;;;;30.33;6.28;;;;;;;6.89;78.42;99096.84;5049286;28;20032;-69
2022/02/20 05:37:24;;;;;;;16.75;5.55;;;;;;;6.91;78.17;99097.63;5067637;28;20528;-70
2022/02/20 05:39:50;;;;;;;14.68;5.45;;;;;;;6.93;78.03;99103.66;5066702;28;20056;-69
2022/02/20 05:42:15;;;;;;;28.92;6.63;;;;;;;6.96;78.28;99102.66;5071518;28;20681;-69
2022/02/20 05:44:41;;;;;;;22.48;6.13;;;;;;;6.99;78.23;99106.00;5087461;28;20032;-69
2022/02/20 05:47:06;;;;;;;20.52;6.93;;;;;;;7.04;78.34;99108.44;5087075;28;20040;-69
2022/02/20 05:49:31;;;;;;;23.63;5.18;;;;;;;7.07;78.54;99108.28;5087175;28;20074;-69
2022/02/20 05:51:57;;;;;;;22.85;4.95;;;;;;;7.10;78.74;99102.88;5087937;28;20054;-69
2022/02/20 05:54:22;;;;;;;34.63;6.32;;;;;;;7.10;79.26;99092.41;5087765;28;20396;-69
2022/02/20 05:56:49;;;;;;;21.33;5.38;;;;;;;7.07;79.71;99080.28;5087536;28;20028;-68
2022/02/20 05:59:15;;;;;;;19.20;5.82;;;;;;;7.05;79.87;99078.66;5087270;28;20060;-69
2022/02/20 06:01:40;;;;;;;31.70;10.48;;;;;;;7.03;79.90;99068.25;5088183;28;20075;-69
2022/02/20 06:04:06;;;;;;;29.80;6.88;;;;;;;7.03;80.53;99065.63;5087972;28;20047;-69
2022/02/20 06:06:32;;;;;;;19.50;5.32;;;;;;;7.03;80.65;99070.84;5088621;28;20374;-70
2022/02/20 06:08:59;;;;;;;16.55;5.57;;;;;;;7.03;81.46;99057.75;5072117;28;20034;-71
2022/02/20 06:11:25;;;;;;;15.70;4.70;;;;;;;7.01;81.17;99064.84;5088167;28;20036;-67
2022/02/20 06:13:51;;;;;;;21.60;4.68;;;;;;;6.99;81.49;99056.22;5087189;28;20036;-70
2022/02/20 06:16:16;;;;;;;23.45;6.38;;;;;;;7.02;81.90;99036.88;5086777;28;20040;-70
2022/02/20 06:18:41;;;;;;;19.75;6.97;;;;;;;7.00;82.26;99029.09;5087216;28;20039;-70
2022/02/20 06:21:07;;;;;;;19.63;6.45;;;;;;;6.98;82.37;99015.19;5086257;28;20107;-70
2022/02/20 06:23:32;;;;;;;21.33;6.20;;;;;;;6.99;81.98;99013.41;5068796;28;20044;-70
2022/02/20 06:25:59;;;;;;;19.70;6.50;;;;;;;7.00;82.18;99013.34;5086629;28;20040;-70
2022/02/20 06:28:25;;;;;;;17.65;4.70;;;;;;;7.03;82.38;99010.59;5087574;28;20075;-70
2022/02/20 06:30:50;;;;;;;21.63;4.95;;;;;;;7.02;82.08;99003.66;5086669;28;20470;-69
2022/02/20 06:33:16;;;;;;;30.95;7.05;;;;;;;7.06;82.34;99006.97;5087055;28;20118;-69
2022/02/20 06:35:41;;;;;;;18.83;5.03;;;;;;;7.03;82.35;98994.84;5086718;28;20115;-69
2022/02/20 06:38:06;;;;;;;21.90;5.43;;;;;;;7.07;82.56;99003.44;5087186;28;20705;-70
2022/02/20 06:40:32;;;;;;;15.18;4.63;;;;;;;7.06;82.48;98999.09;5084922;28;20501;-69
2022/02/20 06:42:57;;;;;;;16.60;5.50;;;;;;;7.08;82.29;98998.09;5074219;28;20108;-70
2022/02/20 06:45:23;;;;;;;20.48;6.22;;;;;;;7.09;82.51;99002.44;5092764;28;20554;-71
2022/02/20 06:47:49;;;;;;;25.00;5.82;;;;;;;7.09;82.84;98997.19;5091976;28;20032;-69
2022/02/20 06:50:14;;;;;;;13.88;3.92;;;;;;;7.11;82.65;98991.88;5089851;28;20057;-70
2022/02/20 06:52:40;;;;;;;16.35;4.13;;;;;;;7.12;82.69;98985.72;5090845;28;20036;-69
2022/02/20 06:55:06;;;;;;;21.08;6.03;;;;;;;7.15;82.53;98988.19;5088062;28;20046;-70
2022/02/20 06:57:36;;;;;;;12.90;4.20;;;;;;;7.13;83.00;98989.19;5089631;28;20032;-71
2022/02/20 07:00:06;;;;;;;12.98;3.60;;;;;;;7.11;83.44;98994.50;5087491;28;20680;-70
2022/02/20 07:02:32;;;;;;;20.98;5.80;;;;;;;7.10;83.65;98992.81;5089286;28;20039;-69
2022/02/20 07:04:58;;;;;;;15.80;5.20;;;;;;;7.12;83.50;99003.22;5089503;28;20028;-70
2022/02/20 07:07:23;;;;;;;11.00;4.35;;;;;;;7.15;83.54;99003.06;5090129;28;20431;-70
2022/02/20 07:09:48;;;;;;;13.20;4.00;;;;;;;7.18;83.63;99002.91;5085809;28;20040;-70
2022/02/20 07:12:14;;;;;;;15.63;4.55;;;;;;;7.19;83.37;98996.78;5088591;28;20024;-69
2022/02/20 07:14:39;;;;;;;12.02;3.80;;;;;;;7.20;83.42;98996.69;5089505;28;20036;-69
2022/02/20 07:17:04;;;;;;;14.18;3.70;;;;;;;7.24;83.95;99007.88;5089537;28;20036;-69
2022/02/20 07:19:30;;;;;;;18.83;4.35;;;;;;;7.24;83.74;99008.72;5090207;28;20464;-70
2022/02/20 07:21:55;;;;;;;12.20;3.78;;;;;;;7.25;83.87;99004.31;5089090;28;20035;-70
2022/02/20 07:24:20;;;;;;;13.80;4.05;;;;;;;7.24;83.64;99015.75;5089851;28;20046;-71
2022/02/20 07:26:47;;;;;;;10.55;3.20;;;;;;;7.24;83.99;99023.63;5089355;28;20040;-71
2022/02/20 07:29:13;;;;;;;12.05;4.13;;;;;;;7.21;84.18;99023.72;5089939;28;20035;-69
2022/02/20 07:31:38;;;;;;;12.23;3.47;;;;;;;7.18;84.53;99029.97;5085770;28;20047;-70
2022/02/20 07:34:03;;;;;;;9.93;3.92;;;;;;;7.21;84.77;99026.34;5075147;28;20040;-70
2022/02/20 07:36:29;;;;;;;12.50;3.65;;;;;;;7.16;85.01;99018.75;5069146;28;20430;-70
2022/02/20 07:38:54;;;;;;;12.07;3.28;;;;;;;7.15;85.25;99030.13;5069113;28;20078;-71
2022/02/20 07:41:19;;;;;;;9.82;3.33;;;;;;;7.17;85.13;99036.16;5068469;28;20040;-69
2022/02/20 07:43:48;;;;;;;18.17;4.70;;;;;;;7.18;85.38;99045.69;5069380;28;20464;-69
2022/02/20 07:46:14;;;;;;;7.57;3.13;;;;;;;7.19;85.30;99038.72;5068652;28;20024;-68
2022/02/20 07:48:40;;;;;;;7.97;3.25;;;;;;;7.22;85.59;99049.03;5069580;28;20040;-69
2022/02/20 07:51:06;;;;;;;12.60;3.45;;;;;;;7.21;85.66;99035.09;5068106;28;20056;-69
2022/02/20 07:53:31;;;;;;;9.38;3.47;;;;;;;7.22;85.77;99049.88;5067895;28;20466;-69
2022/02/20 07:55:57;;;;;;;12.73;3.90;;;;;;;7.25;85.94;99046.28;5068345;28;20123;-70
2022/02/20 07:58:22;;;;;;;11.13;3.30;;;;;;;7.26;85.43;99043.59;5050122;28;20052;-69
2022/02/20 08:00:47;;;;;;;7.05;2.83;;;;;;;7.30;85.22;99049.53;5068606;28;20029;-69
2022/02/20 08:03:13;;;;;;;13.45;3.03;;;;;;;7.32;85.44;99056.38;5068440;28;20039;-70
2022/02/20 08:05:39;;;;;;;8.30;2.40;;;;;;;7.36;85.46;99061.47;5068626;28;20033;-72
2022/02/20 08:08:04;;;;;;;11.27;2.78;;;;;;;7.36;85.71;99059.72;5069212;28;20036;-72
2022/02/20 08:10:29;;;;;;;4.72;2.10;;;;;;;7.34;86.18;99047.63;5068517;28;20033;-71
2022/02/20 08:12:56;;;;;;;8.43;2.55;;;;;;;7.35;86.28;99051.94;5080941;28;20536;-70
2022/02/20 08:15:22;;;;;;;8.60;2.95;;;;;;;7.37;86.29;99039.59;5069523;28;20025;-68
2022/02/20 08:17:48;;;;;;;4.55;2.55;;;;;;;7.39;86.31;99037.75;5068667;28;20042;-69
2022/02/20 08:20:16;;;;;;;3.78;2.15;;;;;;;7.39;85.79;99041.22;5068370;28;20063;-68
2022/02/20 08:22:42;;;;;;;8.30;2.08;;;;;;;7.44;85.73;99030.50;5068958;28;20132;-70
2022/02/20 08:25:08;;;;;;;5.40;2.00;;;;;;;7.50;85.24;99038.06;5068469;28;20107;-70
2022/02/20 08:27:34;;;;;;;6.78;1.75;;;;;;;7.49;85.33;99033.75;5068599;28;20053;-70
2022/02/20 08:30:00;;;;;;;5.90;2.38;;;;;;;7.50;85.34;99031.03;5068259;28;20040;-69
2022/02/20 08:32:26;;;;;;;7.53;2.58;;;;;;;7.50;85.47;99024.97;5068526;28;20656;-70
2022/02/20 08:34:51;;;;;;;5.47;2.08;;;;;;;7.53;84.82;99015.19;5083417;28;20066;-69
2022/02/20 08:37:17;;;;;;;4.88;1.77;;;;;;;7.62;84.89;99002.53;5088578;28;20035;-69
2022/02/20 08:39:42;;;;;;;7.88;3.67;;;;;;;7.62;85.42;99006.00;5088279;28;20032;-69
2022/02/20 08:42:09;;;;;;;4.85;1.70;;;;;;;7.64;85.17;98992.81;5088697;28;20378;-70
2022/02/20 08:44:36;;;;;;;8.38;2.42;;;;;;;7.67;85.20;98985.63;5089249;28;20035;-70
2022/02/20 08:47:02;;;;;;;5.57;2.20;;;;;;;7.72;84.46;98990.63;5088774;28;20036;-70
2022/02/20 08:49:28;;;;;;;8.80;2.65;;;;;;;7.79;84.21;98994.66;5070239;28;20060;-70
2022/02/20 08:51:53;;;;;;;6.22;2.20;;;;;;;7.84;84.12;99004.91;5088586;28;20169;-70
2022/02/20 08:54:19;;;;;;;6.07;2.53;;;;;;;7.87;83.82;98992.47;5087889;28;20456;-69
2022/02/20 08:56:44;;;;;;;4.95;2.28;;;;;;;7.91;83.55;98990.56;5087893;28;20036;-70
2022/02/20 08:59:09;;;;;;;3.42;1.52;;;;;;;7.92;83.67;98989.63;5087750;28;20501;-69
2022/02/20 09:01:35;;;;;;;7.35;1.80;;;;;;;7.95;83.70;99000.00;5070740;28;20042;-71
2022/02/20 09:04:03;;;;;;;3.25;1.42;;;;;;;8.01;83.10;98973.41;5088326;28;20062;-70
2022/02/20 09:06:30;;;;;;;8.73;2.22;;;;;;;8.02;82.71;98987.38;5087380;28;20404;-69
2022/02/20 09:08:56;;;;;;;3.80;2.20;;;;;;;8.03;82.37;98976.81;5088510;28;20045;-70
2022/02/20 09:11:22;;;;;;;5.68;1.90;;;;;;;8.09;82.39;98984.34;5084182;28;20107;-70
2022/02/20 09:13:47;;;;;;;4.90;2.20;;;;;;;8.12;83.01;98985.97;5087184;28;20118;-70
2022/02/20 09:16:12;;;;;;;5.85;2.45;;;;;;;8.14;82.27;98978.88;5087534;28;20028;-70
2022/02/20 09:18:38;;;;;;;4.75;2.05;;;;;;;8.13;82.07;98983.28;5087141;28;20039;-69
2022/02/20 09:21:03;;;;;;;5.88;2.60;;;;;;;8.13;82.66;98987.69;5087867;28;20732;-70
2022/02/20 09:23:28;;;;;;;3.60;1.63;;;;;;;8.13;83.17;98992.94;5087484;28;20028;-70
2022/02/20 09:25:54;;;;;;;8.93;3.00;;;;;;;8.13;82.84;98985.91;5086712;28;20024;-71
2022/02/20 09:28:19;;;;;;;11.00;3.58;;;;;;;8.13;83.06;98974.56;5084406;28;20081;-69
2022/02/20 09:30:44;;;;;;;5.93;2.38;;;;;;;8.18;82.82;98975.16;5070652;28;20066;-70
2022/02/20 09:33:10;;;;;;;7.93;2.70;;;;;;;8.22;83.09;98966.22;5067776;28;20032;-70
2022/02/20 09:35:35;;;;;;;8.20;2.75;;;;;;;8.19;83.93;98987.34;5068736;28;20116;-70
2022/02/20 09:38:01;;;;;;;7.43;2.53;;;;;;;8.18;83.19;98990.91;5050473;28;20485;-70
2022/02/20 09:40:27;;;;;;;6.18;2.50;;;;;;;8.18;83.05;98986.50;5068569;28;20036;-71
2022/02/20 09:42:53;;;;;;;7.05;2.13;;;;;;;8.18;83.06;98997.00;5067509;28;20071;-69
2022/02/20 09:45:19;;;;;;;8.48;3.03;;;;;;;8.24;82.98;98980.06;5069322;28;20123;-70
2022/02/20 09:47:44;;;;;;;9.52;3.13;;;;;;;8.23;83.11;98988.91;5051994;28;20032;-70
2022/02/20 09:50:10;;;;;;;4.57;2.20;;;;;;;8.25;83.59;98994.09;5069617;28;20140;-70
2022/02/20 09:52:35;;;;;;;7.38;2.78;;;;;;;8.21;84.50;98990.75;5050778;28;20035;-70
2022/02/20 09:55:01;;;;;;;15.50;4.05;;;;;;;8.21;84.71;98989.91;5068065;28;20082;-70
2022/02/20 09:57:26;;;;;;;7.53;2.67;;;;;;;8.22;84.80;98981.97;5068104;28;20040;-69
2022/02/20 09:59:52;;;;;;;5.43;2.38;;;;;;;8.16;84.74;98980.47;5068024;28;20024;-69
2022/02/20 10:02:19;;;;;;;11.65;2.75;;;;;;;8.17;85.38;99004.97;5068115;28;20103;-70
2022/02/20 10:04:47;;;;;;;7.53;2.55;;;;;;;8.16;85.52;98987.53;5067825;28;20028;-70
2022/02/20 10:07:33;;;;;;;7.63;2.55;;;;;;;8.15;86.49;98988.47;5067895;28;20063;-70
2022/02/20 10:10:25;;;;;;;6.85;1.90;;;;;;;8.07;86.66;98964.38;5067034;28;20036;-70
2022/02/20 10:13:05;;;;;;;6.63;2.92;;;;;;;8.00;86.79;98955.09;5067391;28;20029;-70
2022/02/20 10:15:35;;;;;;;4.65;1.75;;;;;;;7.93;87.24;98942.31;5068929;28;20028;-70
2022/02/20 10:18:14;;;;;;;9.15;2.28;;;;;;;7.94;87.08;98967.63;5071477;28;20440;-70
2022/02/20 10:20:40;;;;;;;7.35;2.40;;;;;;;7.99;87.16;98963.91;5071088;28;20094;-70
2022/02/20 10:23:08;;;;;;;3.88;2.00;;;;;;;8.02;87.38;98967.22;5053841;28;20411;-69
2022/02/20 10:25:34;;;;;;;4.53;1.90;;;;;;;8.05;87.24;98953.09;5053148;28;20036;-69
2022/02/20 10:28:00;;;;;;;4.43;2.00;;;;;;;8.05;87.00;98943.47;5071203;28;20051;-69
2022/02/20 10:30:27;;;;;;;5.63;2.75;;;;;;;8.09;87.20;98944.13;5070797;28;20045;-69
2022/02/20 10:33:16;;;;;;;6.05;2.22;;;;;;;8.14;86.78;98947.38;5072357;28;20032;-69
2022/02/20 10:35:47;;;;;;;9.45;2.63;;;;;;;8.15;85.95;98960.41;5070966;28;20039;-70
2022/02/20 10:38:21;;;;;;;5.68;2.10;;;;;;;8.25;86.00;98949.44;5070786;28;20032;-69
2022/02/20 10:40:50;;;;;;;5.95;2.08;;;;;;;8.31;85.21;98946.47;5078114;28;20028;-69
2022/02/20 10:43:33;;;;;;;4.45;2.10;;;;;;;8.37;85.08;98933.03;5091490;28;20027;-70
2022/02/20 10:46:08;;;;;;;3.78;1.90;;;;;;;8.48;84.49;98942.97;5091322;28;20047;-69
2022/02/20 10:48:48;;;;;;;5.45;2.50;;;;;;;8.54;84.62;98933.00;5090647;28;20039;-70
2022/02/20 10:51:18;;;;;;;3.72;2.00;;;;;;;8.65;84.07;98935.03;5090913;28;20499;-69
2022/02/20 10:53:45;;;;;;;6.78;2.90;;;;;;;8.74;83.11;98926.63;5091288;28;20039;-69
2022/02/20 10:56:11;;;;;;;7.32;1.95;;;;;;;8.82;82.86;98910.44;5090743;28;20036;-69
2022/02/20 10:58:42;;;;;;;6.88;2.38;;;;;;;8.92;81.70;98922.13;5091383;28;20024;-70
2022/02/20 11:01:19;;;;;;;7.90;2.33;;;;;;;8.97;82.20;98935.00;5090601;28;20396;-70
2022/02/20 11:03:44;;;;;;;9.15;2.50;;;;;;;8.95;81.47;98929.00;5090621;28;20512;-70
2022/02/20 11:06:10;;;;;;;3.85;2.20;;;;;;;9.02;80.93;98922.44;5072610;28;20127;-69
2022/02/20 11:08:35;;;;;;;7.82;2.83;;;;;;;9.07;80.17;98927.44;5091238;28;20024;-70
2022/02/20 11:11:36;;;;;;;9.80;2.20;;;;;;;9.09;80.28;98944.84;5090216;28;20493;-70
2022/02/20 11:13:48;;;;;;;9.23;3.22;;;;;;;9.11;80.04;98947.41;5086239;28;20703;-70
2022/02/20 11:16:14;;;;;;;5.25;2.40;;;;;;;9.10;79.25;98949.16;5090243;28;20028;-70
2022/02/20 11:18:40;;;;;;;10.40;2.97;;;;;;;9.12;79.82;98952.53;5091244;28;20036;-70
2022/02/20 11:21:06;;;;;;;5.82;1.98;;;;;;;9.17;78.97;98942.59;5090786;28;20036;-70
2022/02/20 11:23:31;;;;;;;9.38;2.95;;;;;;;9.22;79.37;98945.81;5090451;28;20405;-70
2022/02/20 11:25:59;;;;;;;9.38;2.60;;;;;;;9.26;79.34;98938.63;5089949;28;20396;-71
2022/02/20 11:28:24;;;;;;;7.40;2.60;;;;;;;9.33;78.86;98931.19;5092297;28;20031;-70
2022/02/20 11:30:50;;;;;;;4.85;2.30;;;;;;;9.37;78.11;98927.47;5090436;28;20028;-70
2022/02/20 11:33:16;;;;;;;5.05;2.97;;;;;;;9.42;77.84;98920.16;5091955;28;20043;-71